Flight Track Log - Related Links

Times and Time Zones

All times are in EDT time to prevent confusion due to time zone crossing. See the ASQ5707 flight status page for this flight to view local times or setup timezone preferences in your user account.

Time Position Orientation Groundspeed Altitude Reporting Facility
EDT Latitude Longitude Course Direction KTS MPH feet Rate Location/Type
Mon 07:25:54 PM 43.6703 -70.1972 226° Southwest 206 237 3,700  Level Boston Center
Mon 07:26:54 PM 43.6397 -70.1142 117° Southeast 269 310 5,600 2,293 Climbing Boston Center
Mon 07:27:57 PM 43.5639 -70.1300 189° South 288 331 8,400 2,661 Climbing Boston Center
Mon 07:28:58 PM 43.5075 -70.2178 228° Southwest 284 327 11,100 2,115 Climbing Boston Center
Mon 07:29:59 PM 43.4519 -70.3067 229° Southwest 304 350 12,700 1,736 Climbing Boston Center
Mon 07:30:59 PM 43.3931 -70.3994 229° Southwest 317 365 14,600 1,742 Climbing Boston Center
Mon 07:31:00 PM 43.3520 -70.4406 226° Southwest  Level FlightAware Approximate
Mon 07:32:03 PM 43.3303 -70.5003 229° Southwest 324 373 16,300  Level Boston Center
Mon 07:33:04 PM 43.2664 -70.5969 228° Southwest 341 392 17,600 1,240 Climbing Boston Center
Mon 07:34:04 PM 43.1867 -70.6919 221° Southwest 351 404 18,800 934 Climbing Boston Center
Mon 07:35:06 PM 43.1131 -70.7536 211° Southwest 368 423 19,500 768 Climbing Boston Center
Mon 07:36:09 PM 43.0200 -70.8217 208° Southwest 379 436 20,400 919 Climbing Boston Center
Mon 07:37:10 PM 42.9033 -70.9044 207° Southwest 393 452 21,400 878 Climbing Boston Center
Mon 07:38:12 PM 42.8028 -70.9703 206° Southwest 400 460 22,200 823 Climbing Boston Center
Mon 07:39:14 PM 42.6975 -71.0211 200° South 402 463 23,100 878 Climbing Boston Center
Mon 07:40:15 PM 42.5906 -71.0725 199° South 407 468 24,000 843 Climbing Boston Center
Mon 07:41:15 PM 42.4972 -71.1494 211° Southwest 407 468 24,800 629 Climbing Boston Center
Mon 07:42:19 PM 42.4619 -71.2867 251° West 392 451 25,300 484 Climbing Boston Center
Mon 07:43:19 PM 42.4322 -71.4308 254° West 396 456 25,800 541 Climbing Boston Center
Mon 07:44:21 PM 42.3969 -71.6017 254° West 403 464 26,400 541 Climbing Boston Center
Mon 07:45:21 PM 42.3664 -71.7508 255° West 408 470 26,900 492 Climbing Boston Center
Mon 07:46:23 PM 42.3356 -71.8997 254° West 409 471 27,400 492 Climbing Boston Center
Mon 07:47:23 PM 42.2906 -72.0461 247° West 416 479 27,900 532 Climbing Boston Center
Mon 07:48:27 PM 42.2433 -72.1900 246° West 417 480 28,500 576 Climbing Boston Center
Mon 07:49:28 PM 42.1975 -72.3317 246° West 416 479 29,100 645 Climbing Boston Center
Mon 07:50:28 PM 42.1514 -72.4736 246° West 414 476 29,800 585 Climbing Boston Center
Mon 07:51:31 PM 42.1050 -72.6158 246° West 414 476 30,300 484 Climbing Boston Center
Mon 07:52:32 PM 42.0575 -72.7581 246° West 414 476 30,800 545 Climbing Boston Center
Mon 07:53:32 PM 42.0008 -72.9292 246° West 414 476 31,400 581 Climbing Boston Center
Mon 07:54:36 PM 41.9531 -73.0706 246° West 414 476 32,000 290 Climbing Boston Center
Mon 07:55:36 PM 41.8794 -73.1950 232° Southwest 423 487 32,000  Level Boston Center
Mon 07:56:37 PM 41.8044 -73.3244 232° Southwest 433 498 32,000  Level Boston Center
Mon 07:57:38 PM 41.7269 -73.4536 231° Southwest 440 506 32,000  Level Boston Center
Mon 07:58:42 PM 41.6483 -73.5839 231° Southwest 445 512 32,000  Level Boston Center
Mon 07:59:43 PM 41.5653 -73.7233 232° Southwest 452 520 32,000  Level Boston Center
Mon 08:00:44 PM 41.4744 -73.8406 224° Southwest 455 524 32,000  Level Boston Center
Mon 08:01:44 PM 41.3639 -73.9264 210° Southwest 461 531 32,000  Level Boston Center
Mon 08:02:45 PM 41.2531 -74.0111 210° Southwest 461 531 32,000  Level Boston Center
Mon 08:03:49 PM 41.1483 -74.1075 215° Southwest 461 531 32,000  Level Boston Center
Mon 08:04:49 PM 41.0731 -74.2403 233° Southwest 458 527 32,000  Level Boston Center
Mon 08:05:50 PM 41.0006 -74.3936 238° Southwest 456 525 32,000  Level Boston Center
Mon 08:06:50 PM 40.9336 -74.5317 237° Southwest 453 521 32,000 -968 Level Boston Center
Mon 08:07:54 PM 40.8781 -74.6794 244° Southwest 452 520 30,000 -1,935 Descending Boston Center
Mon 08:08:54 PM 40.8000 -74.8539 239° Southwest 461 531 28,000 -992 Descending Boston Center
Mon 08:09:55 PM 40.7364 -74.9906 238° Southwest 447 514 28,000 -397 Level Boston Center
Mon 08:10:55 PM 40.6731 -75.1297 239° Southwest 446 513 27,200 -992 Descending Boston Center
Mon 08:11:56 PM 40.6103 -75.2628 238° Southwest 436 502 26,000 -1,152 Descending Boston Center
Mon 08:13:00 PM 40.5467 -75.3975 238° Southwest 436 502 24,800 -1,161 Descending Boston Center
Mon 08:14:00 PM 40.4853 -75.5283 238° Southwest 429 494 23,600 -1,173 Descending Boston Center
Mon 08:15:13 PM 40.4089 -75.6936 239° Southwest 438 504 22,200 -1,164 Descending New York Center
Mon 08:16:14 PM 40.3494 -75.8203 238° Southwest 433 498 21,000 -1,109 Descending New York Center
Mon 08:17:12 PM 40.2764 -75.9619 236° Southwest 433 498 20,000 -504 Descending New York Center
Mon 08:18:13 PM 40.2144 -76.0903 238° Southwest 433 498 20,000 -350 Level New York Center
Mon 08:19:12 PM 40.1633 -76.2061 240° Southwest 426 490 19,300 -1,008 Descending New York Center
Mon 08:20:12 PM 40.0969 -76.3364 236° Southwest 426 490 18,000 -1,200 Descending New York Center
Mon 08:21:57 PM 39.9833 -76.5833 239° Southwest 420 483 16,000 -1,091 Descending Potomac TRACON
Mon 08:22:57 PM 39.9333 -76.7000 241° Southwest 416 479 15,000 -500 Descending Potomac TRACON
Mon 08:23:57 PM 39.8667 -76.8333 237° Southwest 417 480 15,000 -400 Level Potomac TRACON
Mon 08:24:57 PM 39.8167 -76.9667 244° Southwest 404 465 14,200 -526 Descending Potomac TRACON
Mon 08:25:51 PM 39.7667 -77.0667 237° Southwest 360 414 14,000 -750 Descending Potomac TRACON
Mon 08:26:57 PM 39.7167 -77.1667 237° Southwest 295 339 12,700 -1,333 Descending Potomac TRACON
Mon 08:27:57 PM 39.6667 -77.2500 232° Southwest 283 326 11,200 -1,350 Descending Potomac TRACON
Mon 08:28:57 PM 39.6333 -77.3333 243° Southwest 289 333 10,000 -850 Descending Potomac TRACON
Mon 08:29:57 PM 39.5500 -77.3833 205° Southwest 286 329 9,500 -800 Descending Potomac TRACON
Mon 08:30:57 PM 39.4833 -77.4333 210° Southwest 291 335 8,400 -992 Descending Potomac TRACON
Mon 08:31:58 PM 39.4000 -77.4500 189° South 284 327 7,500 -1,041 Descending Potomac TRACON
Mon 08:32:58 PM 39.3333 -77.4500 180° South 241 277 6,300 -750 Descending Potomac TRACON
Mon 08:33:58 PM 39.2667 -77.4500 180° South 232 267 6,000 -744 Descending Potomac TRACON
Mon 08:34:59 PM 39.2000 -77.4500 180° South 230 265 4,800 -1,190 Descending Potomac TRACON
Mon 08:35:59 PM 39.1500 -77.4500 180° South 214 246 3,600 -1,140 Descending Potomac TRACON
Mon 08:37:00 PM 39.0833 -77.4500 180° South 211 243 2,500 -1,091 Descending Potomac TRACON
Mon 08:38:00 PM 39.0333 -77.4500 180° South 198 228 1,400 -900 Descending Potomac TRACON
Mon 08:39:00 PM 38.9833 -77.4667 195° South 138 159 700 -700 Descending Potomac TRACON
Mon 08:40:00 PM 38.9474 -77.4599 180° South  Level Estimated
Mon 08:47:00 PM 38.9474 -77.4599 349° North  Level Estimated
Mon 08:48:00 PM 38.9474 -77.4599 349° North  Level Estimated

Login

Don't have an account? Register now (free) for customized features, flight alerts, and more!